sensor_id;sensor_type;location;lat;lon;timestamp;temperature;humidity
14604;DHT22;7388;51.078;13.740;2023-04-06T00:01:50;7.10;33.60
14604;DHT22;7388;51.078;13.740;2023-04-06T00:04:16;7.00;33.40
14604;DHT22;7388;51.078;13.740;2023-04-06T00:06:42;7.00;33.30
14604;DHT22;7388;51.078;13.740;2023-04-06T00:09:07;6.90;33.20
14604;DHT22;7388;51.078;13.740;2023-04-06T00:11:33;6.90;33.40
14604;DHT22;7388;51.078;13.740;2023-04-06T00:13:59;6.90;33.30
14604;DHT22;7388;51.078;13.740;2023-04-06T00:16:25;6.90;33.40
14604;DHT22;7388;51.078;13.740;2023-04-06T00:18:51;6.80;33.70
14604;DHT22;7388;51.078;13.740;2023-04-06T00:21:17;6.80;33.50
14604;DHT22;7388;51.078;13.740;2023-04-06T00:23:43;6.70;34.00
14604;DHT22;7388;51.078;13.740;2023-04-06T00:26:09;6.60;34.10
14604;DHT22;7388;51.078;13.740;2023-04-06T00:28:37;6.60;34.10
14604;DHT22;7388;51.078;13.740;2023-04-06T00:31:03;6.60;34.00
14604;DHT22;7388;51.078;13.740;2023-04-06T00:33:29;6.60;33.80
14604;DHT22;7388;51.078;13.740;2023-04-06T00:35:55;6.60;34.20
14604;DHT22;7388;51.078;13.740;2023-04-06T00:38:21;6.50;34.60
14604;DHT22;7388;51.078;13.740;2023-04-06T00:40:47;6.50;34.50
14604;DHT22;7388;51.078;13.740;2023-04-06T00:43:13;6.40;34.60
14604;DHT22;7388;51.078;13.740;2023-04-06T00:45:40;6.40;34.70
14604;DHT22;7388;51.078;13.740;2023-04-06T00:48:06;6.40;34.60
14604;DHT22;7388;51.078;13.740;2023-04-06T00:50:33;6.40;34.30
14604;DHT22;7388;51.078;13.740;2023-04-06T00:52:59;6.50;34.50
14604;DHT22;7388;51.078;13.740;2023-04-06T00:55:26;6.40;34.60
14604;DHT22;7388;51.078;13.740;2023-04-06T00:57:52;6.40;34.30
14604;DHT22;7388;51.078;13.740;2023-04-06T01:00:18;6.50;34.40
14604;DHT22;7388;51.078;13.740;2023-04-06T01:02:44;6.50;34.60
14604;DHT22;7388;51.078;13.740;2023-04-06T01:05:11;6.50;34.50
14604;DHT22;7388;51.078;13.740;2023-04-06T01:07:37;6.40;34.30
14604;DHT22;7388;51.078;13.740;2023-04-06T01:10:03;6.50;34.30
14604;DHT22;7388;51.078;13.740;2023-04-06T01:12:29;6.50;34.60
14604;DHT22;7388;51.078;13.740;2023-04-06T01:14:55;6.50;34.60
14604;DHT22;7388;51.078;13.740;2023-04-06T01:17:21;6.50;34.70
14604;DHT22;7388;51.078;13.740;2023-04-06T01:19:47;6.50;34.50
14604;DHT22;7388;51.078;13.740;2023-04-06T01:22:18;6.50;34.30
14604;DHT22;7388;51.078;13.740;2023-04-06T01:24:44;6.50;34.30
14604;DHT22;7388;51.078;13.740;2023-04-06T01:27:10;6.50;34.50
14604;DHT22;7388;51.078;13.740;2023-04-06T01:29:36;6.50;34.30
14604;DHT22;7388;51.078;13.740;2023-04-06T01:32:02;6.50;34.50
14604;DHT22;7388;51.078;13.740;2023-04-06T01:34:28;6.50;34.50
14604;DHT22;7388;51.078;13.740;2023-04-06T01:36:53;6.50;34.60
14604;DHT22;7388;51.078;13.740;2023-04-06T01:39:19;6.50;34.50
14604;DHT22;7388;51.078;13.740;2023-04-06T01:41:45;6.40;34.30
14604;DHT22;7388;51.078;13.740;2023-04-06T01:44:15;6.40;34.40
14604;DHT22;7388;51.078;13.740;2023-04-06T01:46:41;6.40;34.50
14604;DHT22;7388;51.078;13.740;2023-04-06T01:49:07;6.40;34.60
14604;DHT22;7388;51.078;13.740;2023-04-06T01:51:33;6.40;34.60
14604;DHT22;7388;51.078;13.740;2023-04-06T01:53:59;6.30;34.80
14604;DHT22;7388;51.078;13.740;2023-04-06T01:56:24;6.30;34.70
14604;DHT22;7388;51.078;13.740;2023-04-06T01:58:50;6.30;34.90
14604;DHT22;7388;51.078;13.740;2023-04-06T02:01:16;6.30;35.10
14604;DHT22;7388;51.078;13.740;2023-04-06T02:03:42;6.20;35.20
14604;DHT22;7388;51.078;13.740;2023-04-06T02:06:08;6.20;35.10
14604;DHT22;7388;51.078;13.740;2023-04-06T02:08:34;6.20;35.10
14604;DHT22;7388;51.078;13.740;2023-04-06T02:11:00;6.20;35.00
14604;DHT22;7388;51.078;13.740;2023-04-06T02:13:26;6.20;35.10
14604;DHT22;7388;51.078;13.740;2023-04-06T02:15:51;6.20;35.30
14604;DHT22;7388;51.078;13.740;2023-04-06T02:18:17;6.20;35.20
14604;DHT22;7388;51.078;13.740;2023-04-06T02:20:44;6.20;35.10
14604;DHT22;7388;51.078;13.740;2023-04-06T02:23:10;6.20;34.90
14604;DHT22;7388;51.078;13.740;2023-04-06T02:25:36;6.20;34.80
14604;DHT22;7388;51.078;13.740;2023-04-06T02:28:02;6.10;34.80
14604;DHT22;7388;51.078;13.740;2023-04-06T02:30:28;6.10;34.70
14604;DHT22;7388;51.078;13.740;2023-04-06T02:32:55;6.10;34.80
14604;DHT22;7388;51.078;13.740;2023-04-06T02:35:21;6.10;34.70
14604;DHT22;7388;51.078;13.740;2023-04-06T02:37:47;6.10;34.50
14604;DHT22;7388;51.078;13.740;2023-04-06T02:40:13;6.10;34.50
14604;DHT22;7388;51.078;13.740;2023-04-06T02:42:39;6.10;34.60
14604;DHT22;7388;51.078;13.740;2023-04-06T02:45:06;6.00;34.80
14604;DHT22;7388;51.078;13.740;2023-04-06T02:47:32;6.00;34.80
14604;DHT22;7388;51.078;13.740;2023-04-06T02:49:58;5.90;34.60
14604;DHT22;7388;51.078;13.740;2023-04-06T02:52:24;5.90;34.90
14604;DHT22;7388;51.078;13.740;2023-04-06T02:54:50;5.80;34.70
14604;DHT22;7388;51.078;13.740;2023-04-06T02:57:16;5.80;34.70
14604;DHT22;7388;51.078;13.740;2023-04-06T02:59:42;5.70;34.80
14604;DHT22;7388;51.078;13.740;2023-04-06T03:02:08;5.70;34.80
14604;DHT22;7388;51.078;13.740;2023-04-06T03:04:34;5.70;34.70
14604;DHT22;7388;51.078;13.740;2023-04-06T03:07:00;5.70;34.50
14604;DHT22;7388;51.078;13.740;2023-04-06T03:09:26;5.70;34.90
14604;DHT22;7388;51.078;13.740;2023-04-06T03:11:52;5.60;34.70
14604;DHT22;7388;51.078;13.740;2023-04-06T03:14:18;5.60;34.70
14604;DHT22;7388;51.078;13.740;2023-04-06T03:16:48;5.60;34.70
14604;DHT22;7388;51.078;13.740;2023-04-06T03:19:14;5.60;34.80
14604;DHT22;7388;51.078;13.740;2023-04-06T03:21:41;5.50;34.70
14604;DHT22;7388;51.078;13.740;2023-04-06T03:24:08;5.50;34.70
14604;DHT22;7388;51.078;13.740;2023-04-06T03:26:33;5.50;34.80
14604;DHT22;7388;51.078;13.740;2023-04-06T03:28:59;5.40;35.00
14604;DHT22;7388;51.078;13.740;2023-04-06T03:31:26;5.40;35.10
14604;DHT22;7388;51.078;13.740;2023-04-06T03:33:52;5.30;35.00
14604;DHT22;7388;51.078;13.740;2023-04-06T03:36:18;5.30;35.00
14604;DHT22;7388;51.078;13.740;2023-04-06T03:38:44;5.30;35.00
14604;DHT22;7388;51.078;13.740;2023-04-06T03:41:10;5.30;34.90
14604;DHT22;7388;51.078;13.740;2023-04-06T03:43:36;5.30;34.80
14604;DHT22;7388;51.078;13.740;2023-04-06T03:46:01;5.30;34.60
14604;DHT22;7388;51.078;13.740;2023-04-06T03:48:27;5.30;34.70
14604;DHT22;7388;51.078;13.740;2023-04-06T03:50:53;5.30;34.70
14604;DHT22;7388;51.078;13.740;2023-04-06T03:53:19;5.30;34.90
14604;DHT22;7388;51.078;13.740;2023-04-06T03:55:45;5.20;34.60
14604;DHT22;7388;51.078;13.740;2023-04-06T03:58:10;5.20;34.60
14604;DHT22;7388;51.078;13.740;2023-04-06T04:00:36;5.20;34.50
14604;DHT22;7388;51.078;13.740;2023-04-06T04:03:02;5.20;35.00
14604;DHT22;7388;51.078;13.740;2023-04-06T04:05:28;5.10;34.80
14604;DHT22;7388;51.078;13.740;2023-04-06T04:07:54;5.10;34.90
14604;DHT22;7388;51.078;13.740;2023-04-06T04:10:20;5.00;34.80
14604;DHT22;7388;51.078;13.740;2023-04-06T04:12:46;5.00;35.30
14604;DHT22;7388;51.078;13.740;2023-04-06T04:15:12;4.90;35.40
14604;DHT22;7388;51.078;13.740;2023-04-06T04:17:37;4.90;35.80
14604;DHT22;7388;51.078;13.740;2023-04-06T04:20:03;4.90;35.40
14604;DHT22;7388;51.078;13.740;2023-04-06T04:22:29;4.90;35.30
14604;DHT22;7388;51.078;13.740;2023-04-06T04:24:55;4.90;35.30
14604;DHT22;7388;51.078;13.740;2023-04-06T04:27:21;4.80;35.60
14604;DHT22;7388;51.078;13.740;2023-04-06T04:29:47;4.80;35.40
14604;DHT22;7388;51.078;13.740;2023-04-06T04:32:13;4.80;35.40
14604;DHT22;7388;51.078;13.740;2023-04-06T04:34:38;4.80;35.50
14604;DHT22;7388;51.078;13.740;2023-04-06T04:37:07;4.80;35.30
14604;DHT22;7388;51.078;13.740;2023-04-06T04:39:33;4.70;35.60
14604;DHT22;7388;51.078;13.740;2023-04-06T04:41:59;4.70;35.60
14604;DHT22;7388;51.078;13.740;2023-04-06T04:44:25;4.80;35.60
14604;DHT22;7388;51.078;13.740;2023-04-06T04:46:51;4.70;35.70
14604;DHT22;7388;51.078;13.740;2023-04-06T04:49:17;4.70;36.30
14604;DHT22;7388;51.078;13.740;2023-04-06T04:51:43;4.70;35.70
14604;DHT22;7388;51.078;13.740;2023-04-06T04:54:08;4.70;35.70
14604;DHT22;7388;51.078;13.740;2023-04-06T04:56:34;4.70;35.70
14604;DHT22;7388;51.078;13.740;2023-04-06T04:59:00;4.70;35.90
14604;DHT22;7388;51.078;13.740;2023-04-06T05:01:26;4.70;36.00
14604;DHT22;7388;51.078;13.740;2023-04-06T05:03:51;4.70;36.00
14604;DHT22;7388;51.078;13.740;2023-04-06T05:06:17;4.80;36.20
14604;DHT22;7388;51.078;13.740;2023-04-06T05:08:44;4.80;36.20
14604;DHT22;7388;51.078;13.740;2023-04-06T05:11:10;4.80;36.10
14604;DHT22;7388;51.078;13.740;2023-04-06T05:13:36;4.90;36.20
14604;DHT22;7388;51.078;13.740;2023-04-06T05:16:02;5.00;36.20
14604;DHT22;7388;51.078;13.740;2023-04-06T05:18:28;5.00;36.30
14604;DHT22;7388;51.078;13.740;2023-04-06T05:20:53;5.00;36.30
14604;DHT22;7388;51.078;13.740;2023-04-06T05:23:19;5.10;36.40
14604;DHT22;7388;51.078;13.740;2023-04-06T05:25:46;5.10;36.40
14604;DHT22;7388;51.078;13.740;2023-04-06T05:28:11;5.20;36.40
14604;DHT22;7388;51.078;13.740;2023-04-06T05:30:39;5.30;36.50
14604;DHT22;7388;51.078;13.740;2023-04-06T05:33:05;5.40;36.50
14604;DHT22;7388;51.078;13.740;2023-04-06T05:35:31;5.40;36.50
14604;DHT22;7388;51.078;13.740;2023-04-06T05:37:57;5.50;36.40
14604;DHT22;7388;51.078;13.740;2023-04-06T05:40:23;5.50;36.40
14604;DHT22;7388;51.078;13.740;2023-04-06T05:42:49;5.70;36.40
14604;DHT22;7388;51.078;13.740;2023-04-06T05:45:15;5.80;36.70
14604;DHT22;7388;51.078;13.740;2023-04-06T05:47:44;5.90;36.60
14604;DHT22;7388;51.078;13.740;2023-04-06T05:50:11;6.00;36.70
14604;DHT22;7388;51.078;13.740;2023-04-06T05:52:37;6.10;36.80
14604;DHT22;7388;51.078;13.740;2023-04-06T05:55:03;6.20;36.50
14604;DHT22;7388;51.078;13.740;2023-04-06T05:57:30;6.30;36.70
14604;DHT22;7388;51.078;13.740;2023-04-06T05:59:55;6.40;36.70
14604;DHT22;7388;51.078;13.740;2023-04-06T06:02:21;6.40;36.40
14604;DHT22;7388;51.078;13.740;2023-04-06T06:04:47;6.50;36.40
14604;DHT22;7388;51.078;13.740;2023-04-06T06:07:14;6.50;36.70
14604;DHT22;7388;51.078;13.740;2023-04-06T06:09:40;6.60;36.40
14604;DHT22;7388;51.078;13.740;2023-04-06T06:12:06;6.60;36.60
14604;DHT22;7388;51.078;13.740;2023-04-06T06:14:33;6.70;36.60
14604;DHT22;7388;51.078;13.740;2023-04-06T06:16:59;6.70;36.90
14604;DHT22;7388;51.078;13.740;2023-04-06T06:19:24;6.70;36.50
14604;DHT22;7388;51.078;13.740;2023-04-06T06:21:50;6.80;36.50
14604;DHT22;7388;51.078;13.740;2023-04-06T06:24:16;6.90;36.50
14604;DHT22;7388;51.078;13.740;2023-04-06T06:26:42;7.00;36.50
14604;DHT22;7388;51.078;13.740;2023-04-06T06:29:08;7.00;36.20
14604;DHT22;7388;51.078;13.740;2023-04-06T06:31:34;7.10;36.10
14604;DHT22;7388;51.078;13.740;2023-04-06T06:34:00;7.10;36.10
14604;DHT22;7388;51.078;13.740;2023-04-06T06:36:27;7.20;35.80
14604;DHT22;7388;51.078;13.740;2023-04-06T06:38:53;7.30;36.20
14604;DHT22;7388;51.078;13.740;2023-04-06T06:41:19;7.50;36.00
14604;DHT22;7388;51.078;13.740;2023-04-06T06:43:45;7.60;35.80
14604;DHT22;7388;51.078;13.740;2023-04-06T06:46:11;7.80;35.80
14604;DHT22;7388;51.078;13.740;2023-04-06T06:48:36;7.90;35.30
14604;DHT22;7388;51.078;13.740;2023-04-06T06:51:02;8.00;35.40
14604;DHT22;7388;51.078;13.740;2023-04-06T06:53:28;8.20;35.10
14604;DHT22;7388;51.078;13.740;2023-04-06T06:55:54;8.30;34.70
14604;DHT22;7388;51.078;13.740;2023-04-06T06:58:20;8.50;34.70
14604;DHT22;7388;51.078;13.740;2023-04-06T07:00:46;8.60;34.60
14604;DHT22;7388;51.078;13.740;2023-04-06T07:03:12;8.70;33.60
14604;DHT22;7388;51.078;13.740;2023-04-06T07:05:38;8.70;33.30
14604;DHT22;7388;51.078;13.740;2023-04-06T07:08:04;8.70;33.70
14604;DHT22;7388;51.078;13.740;2023-04-06T07:10:30;8.90;33.50
14604;DHT22;7388;51.078;13.740;2023-04-06T07:12:56;9.80;33.90
14604;DHT22;7388;51.078;13.740;2023-04-06T07:15:22;9.20;33.00
14604;DHT22;7388;51.078;13.740;2023-04-06T07:17:47;9.30;33.10
14604;DHT22;7388;51.078;13.740;2023-04-06T07:20:13;9.50;33.00
14604;DHT22;7388;51.078;13.740;2023-04-06T07:22:42;9.60;32.30
14604;DHT22;7388;51.078;13.740;2023-04-06T07:25:08;9.80;32.60
14604;DHT22;7388;51.078;13.740;2023-04-06T07:27:34;9.90;32.40
14604;DHT22;7388;51.078;13.740;2023-04-06T07:30:00;10.10;32.30
14604;DHT22;7388;51.078;13.740;2023-04-06T07:32:25;10.20;31.60
14604;DHT22;7388;51.078;13.740;2023-04-06T07:34:51;10.30;31.30
14604;DHT22;7388;51.078;13.740;2023-04-06T07:37:17;10.50;30.90
14604;DHT22;7388;51.078;13.740;2023-04-06T07:39:43;10.60;31.20
14604;DHT22;7388;51.078;13.740;2023-04-06T07:42:09;10.80;30.80
14604;DHT22;7388;51.078;13.740;2023-04-06T07:44:35;10.80;29.80
14604;DHT22;7388;51.078;13.740;2023-04-06T07:47:01;10.80;29.70
14604;DHT22;7388;51.078;13.740;2023-04-06T07:49:27;11.00;30.20
14604;DHT22;7388;51.078;13.740;2023-04-06T07:51:53;11.10;30.30
14604;DHT22;7388;51.078;13.740;2023-04-06T07:54:19;11.40;29.80
14604;DHT22;7388;51.078;13.740;2023-04-06T07:56:45;11.50;30.50
14604;DHT22;7388;51.078;13.740;2023-04-06T07:59:10;11.70;29.80
14604;DHT22;7388;51.078;13.740;2023-04-06T08:01:36;12.00;28.50
14604;DHT22;7388;51.078;13.740;2023-04-06T08:04:02;12.00;28.30
14604;DHT22;7388;51.078;13.740;2023-04-06T08:06:28;12.20;27.80
14604;DHT22;7388;51.078;13.740;2023-04-06T08:08:54;12.10;26.30
14604;DHT22;7388;51.078;13.740;2023-04-06T08:11:20;12.10;26.70
14604;DHT22;7388;51.078;13.740;2023-04-06T08:13:46;12.20;28.10
14604;DHT22;7388;51.078;13.740;2023-04-06T08:16:12;12.50;28.40
14604;DHT22;7388;51.078;13.740;2023-04-06T08:18:38;12.70;26.50
14604;DHT22;7388;51.078;13.740;2023-04-06T08:21:04;12.90;26.10
14604;DHT22;7388;51.078;13.740;2023-04-06T08:23:30;13.10;28.30
14604;DHT22;7388;51.078;13.740;2023-04-06T08:25:56;13.40;27.60
14604;DHT22;7388;51.078;13.740;2023-04-06T08:28:21;13.40;24.10
14604;DHT22;7388;51.078;13.740;2023-04-06T08:30:47;13.40;24.80
14604;DHT22;7388;51.078;13.740;2023-04-06T08:33:13;13.50;24.80
14604;DHT22;7388;51.078;13.740;2023-04-06T08:35:39;13.50;25.20
14604;DHT22;7388;51.078;13.740;2023-04-06T08:38:05;13.70;24.20
14604;DHT22;7388;51.078;13.740;2023-04-06T08:40:40;13.80;23.70
14604;DHT22;7388;51.078;13.740;2023-04-06T08:43:13;14.00;22.70
14604;DHT22;7388;51.078;13.740;2023-04-06T08:45:40;14.10;23.30
14604;DHT22;7388;51.078;13.740;2023-04-06T08:48:06;14.20;22.20
14604;DHT22;7388;51.078;13.740;2023-04-06T08:50:33;14.30;23.10
14604;DHT22;7388;51.078;13.740;2023-04-06T08:52:59;14.50;22.00
14604;DHT22;7388;51.078;13.740;2023-04-06T08:55:26;14.70;20.20
14604;DHT22;7388;51.078;13.740;2023-04-06T08:57:52;14.60;19.00
14604;DHT22;7388;51.078;13.740;2023-04-06T09:00:20;14.50;20.40
14604;DHT22;7388;51.078;13.740;2023-04-06T09:02:49;14.60;22.80
14604;DHT22;7388;51.078;13.740;2023-04-06T09:05:15;14.80;21.40
14604;DHT22;7388;51.078;13.740;2023-04-06T09:07:42;15.00;21.90
14604;DHT22;7388;51.078;13.740;2023-04-06T09:10:08;15.30;22.00
14604;DHT22;7388;51.078;13.740;2023-04-06T09:12:34;15.60;21.30
14604;DHT22;7388;51.078;13.740;2023-04-06T09:15:01;15.80;22.60
14604;DHT22;7388;51.078;13.740;2023-04-06T09:17:32;16.10;22.40
14604;DHT22;7388;51.078;13.740;2023-04-06T09:20:02;16.30;22.40
14604;DHT22;7388;51.078;13.740;2023-04-06T09:22:41;16.50;19.30
14604;DHT22;7388;51.078;13.740;2023-04-06T09:25:08;16.60;18.30
14604;DHT22;7388;51.078;13.740;2023-04-06T09:27:37;16.60;18.20
14604;DHT22;7388;51.078;13.740;2023-04-06T09:30:10;16.70;17.40
14604;DHT22;7388;51.078;13.740;2023-04-06T09:32:59;16.50;15.90
14604;DHT22;7388;51.078;13.740;2023-04-06T09:35:25;16.40;16.40
14604;DHT22;7388;51.078;13.740;2023-04-06T09:37:55;16.30;17.10
14604;DHT22;7388;51.078;13.740;2023-04-06T09:40:21;16.40;15.70
14604;DHT22;7388;51.078;13.740;2023-04-06T09:42:49;16.40;15.60
14604;DHT22;7388;51.078;13.740;2023-04-06T09:45:17;16.50;16.20
14604;DHT22;7388;51.078;13.740;2023-04-06T09:47:44;16.50;16.00
14604;DHT22;7388;51.078;13.740;2023-04-06T09:50:12;16.60;15.30
14604;DHT22;7388;51.078;13.740;2023-04-06T09:52:47;16.30;14.90
14604;DHT22;7388;51.078;13.740;2023-04-06T09:55:42;16.30;15.70
14604;DHT22;7388;51.078;13.740;2023-04-06T09:58:13;16.50;17.00
14604;DHT22;7388;51.078;13.740;2023-04-06T10:01:17;16.80;16.50
14604;DHT22;7388;51.078;13.740;2023-04-06T10:03:54;17.10;18.60
14604;DHT22;7388;51.078;13.740;2023-04-06T10:06:23;17.50;16.70
14604;DHT22;7388;51.078;13.740;2023-04-06T10:08:52;16.90;17.10
14604;DHT22;7388;51.078;13.740;2023-04-06T10:11:20;18.10;17.30
14604;DHT22;7388;51.078;13.740;2023-04-06T10:13:47;18.40;16.50
14604;DHT22;7388;51.078;13.740;2023-04-06T10:16:15;18.40;12.90
14604;DHT22;7388;51.078;13.740;2023-04-06T10:18:46;18.30;14.50
14604;DHT22;7388;51.078;13.740;2023-04-06T10:21:16;18.40;11.20
14604;DHT22;7388;51.078;13.740;2023-04-06T10:23:52;18.10;12.90
14604;DHT22;7388;51.078;13.740;2023-04-06T10:26:21;18.00;12.60
14604;DHT22;7388;51.078;13.740;2023-04-06T10:28:48;18.00;15.10
14604;DHT22;7388;51.078;13.740;2023-04-06T10:31:15;18.10;13.10
14604;DHT22;7388;51.078;13.740;2023-04-06T10:33:55;18.00;15.30
14604;DHT22;7388;51.078;13.740;2023-04-06T10:36:24;18.20;16.50
14604;DHT22;7388;51.078;13.740;2023-04-06T10:39:00;18.30;16.70
14604;DHT22;7388;51.078;13.740;2023-04-06T10:41:40;18.50;16.90
14604;DHT22;7388;51.078;13.740;2023-04-06T10:44:06;18.90;16.60
14604;DHT22;7388;51.078;13.740;2023-04-06T10:46:33;19.10;18.10
14604;DHT22;7388;51.078;13.740;2023-04-06T10:49:19;19.20;16.80
14604;DHT22;7388;51.078;13.740;2023-04-06T10:51:52;19.20;15.30
14604;DHT22;7388;51.078;13.740;2023-04-06T10:54:21;18.90;15.90
14604;DHT22;7388;51.078;13.740;2023-04-06T10:56:47;18.60;16.20
14604;DHT22;7388;51.078;13.740;2023-04-06T10:59:13;18.40;17.10
14604;DHT22;7388;51.078;13.740;2023-04-06T11:01:44;18.20;17.00
14604;DHT22;7388;51.078;13.740;2023-04-06T11:04:10;18.10;15.10
14604;DHT22;7388;51.078;13.740;2023-04-06T11:06:39;17.80;16.30
14604;DHT22;7388;51.078;13.740;2023-04-06T11:09:05;17.60;17.30
14604;DHT22;7388;51.078;13.740;2023-04-06T11:11:31;17.50;16.90
14604;DHT22;7388;51.078;13.740;2023-04-06T11:13:58;17.40;17.10
14604;DHT22;7388;51.078;13.740;2023-04-06T11:16:26;17.30;17.40
14604;DHT22;7388;51.078;13.740;2023-04-06T11:18:56;17.30;17.30
14604;DHT22;7388;51.078;13.740;2023-04-06T11:21:37;17.30;17.90
14604;DHT22;7388;51.078;13.740;2023-04-06T11:26:45;17.10;14.50
14604;DHT22;7388;51.078;13.740;2023-04-06T11:29:16;16.80;15.20
14604;DHT22;7388;51.078;13.740;2023-04-06T11:31:45;16.70;16.50
14604;DHT22;7388;51.078;13.740;2023-04-06T11:34:13;16.80;17.60
14604;DHT22;7388;51.078;13.740;2023-04-06T11:36:44;17.00;18.20
14604;DHT22;7388;51.078;13.740;2023-04-06T11:39:11;17.50;18.10
14604;DHT22;7388;51.078;13.740;2023-04-06T11:41:37;18.00;16.90
14604;DHT22;7388;51.078;13.740;2023-04-06T11:44:03;18.30;15.20
14604;DHT22;7388;51.078;13.740;2023-04-06T11:46:29;18.70;15.60
14604;DHT22;7388;51.078;13.740;2023-04-06T11:48:59;19.10;16.20
14604;DHT22;7388;51.078;13.740;2023-04-06T11:51:26;19.50;14.60
14604;DHT22;7388;51.078;13.740;2023-04-06T11:53:52;19.60;15.20
14604;DHT22;7388;51.078;13.740;2023-04-06T11:56:28;20.00;16.40
14604;DHT22;7388;51.078;13.740;2023-04-06T11:58:55;20.30;13.90
14604;DHT22;7388;51.078;13.740;2023-04-06T12:01:22;20.30;13.50
14604;DHT22;7388;51.078;13.740;2023-04-06T12:03:48;20.30;12.60
14604;DHT22;7388;51.078;13.740;2023-04-06T12:06:14;20.30;11.90
14604;DHT22;7388;51.078;13.740;2023-04-06T12:08:40;20.00;11.40
14604;DHT22;7388;51.078;13.740;2023-04-06T12:11:06;19.90;12.70
14604;DHT22;7388;51.078;13.740;2023-04-06T12:13:32;20.00;12.10
14604;DHT22;7388;51.078;13.740;2023-04-06T12:15:58;19.90;13.60
14604;DHT22;7388;51.078;13.740;2023-04-06T12:18:24;20.10;15.00
14604;DHT22;7388;51.078;13.740;2023-04-06T12:20:51;20.40;14.70
14604;DHT22;7388;51.078;13.740;2023-04-06T12:23:18;20.70;15.20
14604;DHT22;7388;51.078;13.740;2023-04-06T12:25:44;21.00;15.10
14604;DHT22;7388;51.078;13.740;2023-04-06T12:28:10;21.30;14.70
14604;DHT22;7388;51.078;13.740;2023-04-06T12:30:36;21.50;12.10
14604;DHT22;7388;51.078;13.740;2023-04-06T12:33:03;21.50;14.90
14604;DHT22;7388;51.078;13.740;2023-04-06T12:35:29;21.70;14.50
14604;DHT22;7388;51.078;13.740;2023-04-06T12:37:58;21.80;14.70
14604;DHT22;7388;51.078;13.740;2023-04-06T12:40:24;22.00;15.00
14604;DHT22;7388;51.078;13.740;2023-04-06T12:42:50;22.20;13.50
14604;DHT22;7388;51.078;13.740;2023-04-06T12:45:16;22.20;14.60
14604;DHT22;7388;51.078;13.740;2023-04-06T12:47:41;22.40;14.90
14604;DHT22;7388;51.078;13.740;2023-04-06T12:50:07;22.50;14.80
14604;DHT22;7388;51.078;13.740;2023-04-06T12:52:33;22.60;14.70
14604;DHT22;7388;51.078;13.740;2023-04-06T12:55:05;22.80;15.10
14604;DHT22;7388;51.078;13.740;2023-04-06T12:57:31;22.70;14.50
14604;DHT22;7388;51.078;13.740;2023-04-06T12:59:57;22.90;14.40
14604;DHT22;7388;51.078;13.740;2023-04-06T13:02:23;23.00;14.70
14604;DHT22;7388;51.078;13.740;2023-04-06T13:04:49;23.20;15.60
14604;DHT22;7388;51.078;13.740;2023-04-06T13:07:15;23.30;15.60
14604;DHT22;7388;51.078;13.740;2023-04-06T13:09:41;23.50;14.90
14604;DHT22;7388;51.078;13.740;2023-04-06T13:12:07;23.50;14.90
14604;DHT22;7388;51.078;13.740;2023-04-06T13:14:33;23.60;15.60
14604;DHT22;7388;51.078;13.740;2023-04-06T13:16:59;23.70;15.00
14604;DHT22;7388;51.078;13.740;2023-04-06T13:19:25;23.80;15.30
14604;DHT22;7388;51.078;13.740;2023-04-06T13:21:52;23.90;14.30
14604;DHT22;7388;51.078;13.740;2023-04-06T13:24:18;24.00;15.00
14604;DHT22;7388;51.078;13.740;2023-04-06T13:26:45;24.00;14.90
14604;DHT22;7388;51.078;13.740;2023-04-06T13:29:10;24.10;14.40
14604;DHT22;7388;51.078;13.740;2023-04-06T13:31:36;24.20;13.70
14604;DHT22;7388;51.078;13.740;2023-04-06T13:34:03;24.30;13.50
14604;DHT22;7388;51.078;13.740;2023-04-06T13:36:29;24.30;13.70
14604;DHT22;7388;51.078;13.740;2023-04-06T13:38:55;24.30;13.60
14604;DHT22;7388;51.078;13.740;2023-04-06T13:41:22;24.20;14.40
14604;DHT22;7388;51.078;13.740;2023-04-06T13:43:49;24.10;13.90
14604;DHT22;7388;51.078;13.740;2023-04-06T13:46:15;24.10;13.50
14604;DHT22;7388;51.078;13.740;2023-04-06T13:48:42;24.00;13.90
14604;DHT22;7388;51.078;13.740;2023-04-06T13:51:12;23.90;14.10
14604;DHT22;7388;51.078;13.740;2023-04-06T13:53:38;23.90;14.20
14604;DHT22;7388;51.078;13.740;2023-04-06T13:56:05;23.90;14.30
14604;DHT22;7388;51.078;13.740;2023-04-06T13:58:30;24.00;13.40
14604;DHT22;7388;51.078;13.740;2023-04-06T14:01:07;24.00;13.10
14604;DHT22;7388;51.078;13.740;2023-04-06T14:03:35;24.00;13.40
14604;DHT22;7388;51.078;13.740;2023-04-06T14:06:01;23.90;12.50
14604;DHT22;7388;51.078;13.740;2023-04-06T14:08:26;23.80;13.90
14604;DHT22;7388;51.078;13.740;2023-04-06T14:10:52;23.70;14.00
14604;DHT22;7388;51.078;13.740;2023-04-06T14:13:19;23.60;13.40
14604;DHT22;7388;51.078;13.740;2023-04-06T14:15:45;23.40;13.80
14604;DHT22;7388;51.078;13.740;2023-04-06T14:18:11;23.40;13.70
14604;DHT22;7388;51.078;13.740;2023-04-06T14:20:37;23.20;14.40
14604;DHT22;7388;51.078;13.740;2023-04-06T14:23:03;23.10;15.00
14604;DHT22;7388;51.078;13.740;2023-04-06T14:25:29;23.20;14.60
14604;DHT22;7388;51.078;13.740;2023-04-06T14:27:59;23.20;14.00
14604;DHT22;7388;51.078;13.740;2023-04-06T14:30:26;23.30;14.20
14604;DHT22;7388;51.078;13.740;2023-04-06T14:32:56;23.30;13.70
14604;DHT22;7388;51.078;13.740;2023-04-06T14:35:22;23.20;14.40
14604;DHT22;7388;51.078;13.740;2023-04-06T14:37:48;23.20;14.50
14604;DHT22;7388;51.078;13.740;2023-04-06T14:40:14;23.00;11.60
14604;DHT22;7388;51.078;13.740;2023-04-06T14:42:40;22.70;11.80
14604;DHT22;7388;51.078;13.740;2023-04-06T14:45:06;22.60;12.40
14604;DHT22;7388;51.078;13.740;2023-04-06T14:47:32;22.50;13.40
14604;DHT22;7388;51.078;13.740;2023-04-06T14:49:58;22.40;13.60
14604;DHT22;7388;51.078;13.740;2023-04-06T14:52:23;22.40;14.20
14604;DHT22;7388;51.078;13.740;2023-04-06T14:54:49;22.40;14.20
14604;DHT22;7388;51.078;13.740;2023-04-06T14:57:15;22.40;13.60
14604;DHT22;7388;51.078;13.740;2023-04-06T14:59:41;22.50;14.10
14604;DHT22;7388;51.078;13.740;2023-04-06T15:02:07;22.50;14.50
14604;DHT22;7388;51.078;13.740;2023-04-06T15:04:34;22.50;14.30
14604;DHT22;7388;51.078;13.740;2023-04-06T15:07:01;22.50;14.10
14604;DHT22;7388;51.078;13.740;2023-04-06T15:09:26;22.50;13.50
14604;DHT22;7388;51.078;13.740;2023-04-06T15:11:52;22.50;14.20
14604;DHT22;7388;51.078;13.740;2023-04-06T15:14:18;22.40;12.90
14604;DHT22;7388;51.078;13.740;2023-04-06T15:16:43;22.30;13.50
14604;DHT22;7388;51.078;13.740;2023-04-06T15:19:09;22.20;13.80
14604;DHT22;7388;51.078;13.740;2023-04-06T15:21:36;22.00;13.90
14604;DHT22;7388;51.078;13.740;2023-04-06T15:24:01;21.90;13.20
14604;DHT22;7388;51.078;13.740;2023-04-06T15:26:28;21.90;14.30
14604;DHT22;7388;51.078;13.740;2023-04-06T15:28:54;21.70;14.00
14604;DHT22;7388;51.078;13.740;2023-04-06T15:31:20;21.70;14.20
14604;DHT22;7388;51.078;13.740;2023-04-06T15:33:46;21.50;14.80
14604;DHT22;7388;51.078;13.740;2023-04-06T15:36:26;21.30;14.70
14604;DHT22;7388;51.078;13.740;2023-04-06T15:38:55;21.20;13.80